Time,TemperatureF,DewpointF,PressureIn,WindDirection,WindDirectionDegrees,WindSpeedMPH,WindSpeedGustMPH,Humidity,HourlyPrecipIn,Conditions,Clouds,dailyrainin,SoftwareType,DateUTC
2013-06-05 00:06:00,54.6,43.9,30.11,North,353,0.0,1.5,67,0.00,,CLR,0.00,VWS V14.01,2013-06-05 04:06:00,
2013-06-05 00:11:00,54.6,44.3,30.11,North,352,0.0,1.5,68,0.00,,CLR,0.00,VWS V14.01,2013-06-05 04:11:00,
2013-06-05 00:16:00,54.6,44.7,30.11,North,352,1.5,1.5,69,0.00,,CLR,0.00,VWS V14.01,2013-06-05 04:16:00,
2013-06-05 00:21:00,54.4,44.1,30.11,North,351,0.0,1.5,68,0.00,,CLR,0.00,VWS V14.01,2013-06-05 04:21:00,
2013-06-05 00:26:00,54.4,44.1,30.11,North,352,0.0,1.5,68,0.00,,CLR,0.00,VWS V14.01,2013-06-05 04:26:00,
2013-06-05 00:31:00,54.4,45.2,30.11,North,353,0.0,1.5,71,0.00,,CLR,0.00,VWS V14.01,2013-06-05 04:31:00,
2013-06-05 00:36:00,54.3,44.7,30.11,North,352,0.0,1.5,70,0.00,,CLR,0.00,VWS V14.01,2013-06-05 04:36:00,
2013-06-05 00:41:00,54.3,44.0,30.11,North,352,0.0,0.0,68,0.00,,CLR,0.00,VWS V14.01,2013-06-05 04:41:00,
2013-06-05 00:46:00,54.3,44.4,30.12,North,352,0.0,1.5,69,0.00,,CLR,0.00,VWS V14.01,2013-06-05 04:46:00,
2013-06-05 00:51:00,54.1,44.2,30.12,North,352,1.5,1.5,69,0.00,,CLR,0.00,VWS V14.01,2013-06-05 04:51:00,
2013-06-05 00:56:00,54.0,44.1,30.12,North,351,0.0,1.5,69,0.00,,CLR,0.00,VWS V14.01,2013-06-05 04:56:00,
2013-06-05 01:01:00,53.8,43.1,30.12,North,349,1.5,1.5,67,0.00,,CLR,0.00,VWS V14.01,2013-06-05 05:01:00,
2013-06-05 01:06:00,53.7,43.0,30.12,NNW,340,0.0,3.0,67,0.00,,CLR,0.00,VWS V14.01,2013-06-05 05:06:00,
2013-06-05 01:11:00,53.7,43.4,30.12,NW,314,0.0,3.0,68,0.00,,CLR,0.00,VWS V14.01,2013-06-05 05:11:00,
2013-06-05 01:16:00,53.7,43.4,30.12,NNW,338,0.0,3.0,68,0.00,,CLR,0.00,VWS V14.01,2013-06-05 05:16:00,
2013-06-05 01:22:00,53.7,43.4,30.12,West,277,0.0,3.0,68,0.00,,CLR,0.00,VWS V14.01,2013-06-05 05:22:00,
2013-06-05 01:26:00,53.8,43.1,30.12,WNW,300,0.0,3.0,67,0.00,,CLR,0.00,VWS V14.01,2013-06-05 05:26:00,
2013-06-05 01:31:00,53.8,43.1,30.11,NNE,12,0.0,1.5,67,0.00,,CLR,0.00,VWS V14.01,2013-06-05 05:31:00,
2013-06-05 01:36:00,54.0,43.3,30.11,West,270,0.0,3.0,67,0.00,,CLR,0.00,VWS V14.01,2013-06-05 05:36:00,
2013-06-05 01:42:00,54.0,43.7,30.11,NNE,27,0.0,3.0,68,0.00,,CLR,0.00,VWS V14.01,2013-06-05 05:42:00,
2013-06-05 01:47:00,54.0,43.3,30.11,North,357,0.0,3.0,67,0.00,,CLR,0.00,VWS V14.01,2013-06-05 05:47:00,
2013-06-05 01:52:00,54.1,43.4,30.11,NNW,333,0.0,3.0,67,0.00,,CLR,0.00,VWS V14.01,2013-06-05 05:52:00,
2013-06-05 01:57:00,54.1,43.4,30.11,NW,308,0.0,3.0,67,0.00,,CLR,0.00,VWS V14.01,2013-06-05 05:57:00,
2013-06-05 02:02:00,54.1,43.0,30.12,West,273,0.0,3.0,66,0.00,,CLR,0.00,VWS V14.01,2013-06-05 06:02:00,
2013-06-05 02:07:00,54.1,43.0,30.12,NNE,25,0.0,3.0,66,0.00,,CLR,0.00,VWS V14.01,2013-06-05 06:07:00,
2013-06-05 02:12:00,54.1,43.8,30.12,NNE,25,0.0,3.0,68,0.00,,CLR,0.00,VWS V14.01,2013-06-05 06:12:00,
2013-06-05 02:17:00,54.0,43.7,30.12,West,267,0.0,3.0,68,0.00,,CLR,0.00,VWS V14.01,2013-06-05 06:17:00,
2013-06-05 02:22:00,54.0,43.7,30.12,SE,128,0.0,3.0,68,0.00,,CLR,0.00,VWS V14.01,2013-06-05 06:22:00,
2013-06-05 02:27:00,54.0,44.5,30.12,ESE,104,0.0,3.0,70,0.00,,CLR,0.00,VWS V14.01,2013-06-05 06:27:00,
2013-06-05 02:32:00,54.0,44.8,30.12,ESE,105,0.0,3.0,71,0.00,,CLR,0.00,VWS V14.01,2013-06-05 06:32:00,
2013-06-05 02:37:00,53.8,45.0,30.12,ESE,105,0.0,3.0,72,0.00,,CLR,0.00,VWS V14.01,2013-06-05 06:37:00,
2013-06-05 02:42:00,53.7,44.5,30.12,ESE,105,0.0,3.0,71,0.00,,CLR,0.00,VWS V14.01,2013-06-05 06:42:00,
2013-06-05 02:47:00,53.5,44.3,30.12,SSE,163,0.0,4.5,71,0.00,,CLR,0.00,VWS V14.01,2013-06-05 06:47:00,
2013-06-05 02:52:00,53.4,43.9,30.12,SSE,163,0.0,4.5,70,0.00,,CLR,0.00,VWS V14.01,2013-06-05 06:52:00,
2013-06-05 03:24:00,51.9,43.9,30.13,SSE,164,0.0,3.0,74,0.00,,CLR,0.00,VWS V14.01,2013-06-05 07:24:00,
2013-06-05 03:30:00,51.8,43.8,30.13,SSE,164,0.0,3.0,74,0.00,,CLR,0.00,VWS V14.01,2013-06-05 07:30:00,
2013-06-05 03:35:00,51.5,43.5,30.13,SSE,164,0.0,0.0,74,0.00,,CLR,0.00,VWS V14.01,2013-06-05 07:35:00,
2013-06-05 03:40:00,51.2,43.6,30.13,SSE,164,0.0,0.0,75,0.00,,CLR,0.00,VWS V14.01,2013-06-05 07:40:00,
2013-06-05 03:45:00,51.0,43.4,30.13,SSE,164,0.0,0.0,75,0.00,,CLR,0.00,VWS V14.01,2013-06-05 07:45:00,
2013-06-05 03:50:00,50.7,43.4,30.13,SSE,164,0.0,0.0,76,0.00,,CLR,0.00,VWS V14.01,2013-06-05 07:50:00,
2013-06-05 03:55:00,50.6,43.3,30.13,SSE,164,0.0,0.0,76,0.00,,CLR,0.00,VWS V14.01,2013-06-05 07:55:00,
2013-06-05 04:00:00,50.6,43.3,30.13,SSE,164,0.0,0.0,76,0.00,,CLR,0.00,VWS V14.01,2013-06-05 08:00:00,
2013-06-05 04:05:00,50.4,43.8,30.13,SSE,164,0.0,0.0,78,0.00,,CLR,0.00,VWS V14.01,2013-06-05 08:05:00,
2013-06-05 04:10:00,50.4,43.1,30.13,SSE,164,0.0,0.0,76,0.00,,CLR,0.00,VWS V14.01,2013-06-05 08:10:00,
2013-06-05 04:15:00,50.6,43.0,30.14,SSE,164,0.0,0.0,75,0.00,,CLR,0.00,VWS V14.01,2013-06-05 08:15:00,
2013-06-05 04:20:00,50.6,43.3,30.14,SSE,164,0.0,0.0,76,0.00,,CLR,0.00,VWS V14.01,2013-06-05 08:20:00,
2013-06-05 04:25:00,50.7,43.8,30.14,SSE,164,0.0,0.0,77,0.00,,CLR,0.00,VWS V14.01,2013-06-05 08:25:00,
2013-06-05 04:30:00,50.7,43.8,30.15,South,170,0.0,0.0,77,0.00,,CLR,0.00,VWS V14.01,2013-06-05 08:30:00,
2013-06-05 04:35:00,50.7,42.7,30.15,WNW,301,0.0,1.5,74,0.00,,CLR,0.00,VWS V14.01,2013-06-05 08:35:00,
2013-06-05 04:40:00,51.0,43.4,30.15,NNE,22,0.0,1.5,75,0.00,,CLR,0.00,VWS V14.01,2013-06-05 08:40:00,
2013-06-05 04:45:00,51.2,43.2,30.15,NNE,31,0.0,1.5,74,0.00,,CLR,0.00,VWS V14.01,2013-06-05 08:45:00,
2013-06-05 04:50:00,51.0,42.7,30.15,North,4,0.0,1.5,73,0.00,,CLR,0.00,VWS V14.01,2013-06-05 08:50:00,
2013-06-05 04:55:00,51.0,43.4,30.15,West,268,0.0,3.0,75,0.00,,CLR,0.00,VWS V14.01,2013-06-05 08:55:00,
2013-06-05 05:00:00,51.0,43.4,30.16,West,267,0.0,3.0,75,0.00,,CLR,0.00,VWS V14.01,2013-06-05 09:00:00,
2013-06-05 05:05:00,50.9,43.6,30.16,NNE,14,0.0,3.0,76,0.00,,CLR,0.00,VWS V14.01,2013-06-05 09:05:00,
2013-06-05 05:10:00,50.9,44.0,30.16,NNE,14,0.0,3.0,77,0.00,,CLR,0.00,VWS V14.01,2013-06-05 09:10:00,
2013-06-05 05:15:00,50.7,43.1,30.17,NNE,13,0.0,1.5,75,0.00,,CLR,0.00,VWS V14.01,2013-06-05 09:15:00,
2013-06-05 05:20:00,50.4,43.1,30.17,NNE,14,0.0,1.5,76,0.00,,CLR,0.00,VWS V14.01,2013-06-05 09:20:00,
2013-06-05 05:25:00,50.3,43.0,30.17,NNE,14,0.0,1.5,76,0.00,,CLR,0.00,VWS V14.01,2013-06-05 09:25:00,
2013-06-05 05:30:00,50.1,43.2,30.17,NNE,13,0.0,1.5,77,0.00,,CLR,0.00,VWS V14.01,2013-06-05 09:30:00,
2013-06-05 05:35:00,50.0,43.1,30.17,NNE,14,0.0,0.0,77,0.00,,CLR,0.00,VWS V14.01,2013-06-05 09:35:00,
2013-06-05 05:40:00,50.0,43.1,30.17,NNE,13,0.0,0.0,77,0.00,,CLR,0.00,VWS V14.01,2013-06-05 09:40:00,
2013-06-05 05:45:00,50.0,43.1,30.17,NNE,14,0.0,0.0,77,0.00,,CLR,0.00,VWS V14.01,2013-06-05 09:45:00,
2013-06-05 05:50:00,50.1,43.2,30.17,NNE,14,0.0,0.0,77,0.00,,CLR,0.00,VWS V14.01,2013-06-05 09:50:00,
2013-06-05 05:55:00,50.1,43.8,30.17,NNE,14,0.0,0.0,79,0.00,,CLR,0.00,VWS V14.01,2013-06-05 09:55:00,
2013-06-05 06:00:00,50.3,43.7,30.18,NNE,14,0.0,0.0,78,0.00,,CLR,0.00,VWS V14.01,2013-06-05 10:00:00,
2013-06-05 06:05:00,50.4,43.8,30.18,NW,320,0.0,1.5,78,0.00,,CLR,0.00,VWS V14.01,2013-06-05 10:05:00,
2013-06-05 06:10:00,51.0,43.7,30.18,NNW,339,0.0,1.5,76,0.00,,CLR,0.00,VWS V14.01,2013-06-05 10:10:00,
2013-06-05 06:15:00,51.8,43.8,30.18,West,270,0.0,1.5,74,0.00,,CLR,0.00,VWS V14.01,2013-06-05 10:15:00,
2013-06-05 06:20:00,52.3,43.2,30.18,West,272,0.0,1.5,71,0.00,,CLR,0.00,VWS V14.01,2013-06-05 10:20:00,
2013-06-05 06:25:00,52.9,43.8,30.18,NNE,16,0.0,1.5,71,0.00,,CLR,0.00,VWS V14.01,2013-06-05 10:25:00,
2013-06-05 06:30:00,53.2,44.0,30.18,NNE,14,0.0,1.5,71,0.00,,CLR,0.00,VWS V14.01,2013-06-05 10:30:00,
2013-06-05 06:35:00,53.2,43.7,30.18,NNE,13,0.0,1.5,70,0.00,,CLR,0.00,VWS V14.01,2013-06-05 10:35:00,
2013-06-05 06:40:00,53.4,43.5,30.18,North,9,0.0,3.0,69,0.00,,CLR,0.00,VWS V14.01,2013-06-05 10:40:00,
2013-06-05 06:45:00,53.4,43.5,30.18,WNW,289,0.0,3.0,69,0.00,,CLR,0.00,VWS V14.01,2013-06-05 10:45:00,
2013-06-05 06:50:00,53.2,42.9,30.18,WNW,288,0.0,3.0,68,0.00,,CLR,0.00,VWS V14.01,2013-06-05 10:50:00,
2013-06-05 06:55:00,53.2,43.3,30.18,WNW,289,0.0,3.0,69,0.00,,CLR,0.00,VWS V14.01,2013-06-05 10:55:00,
2013-06-05 07:00:00,53.1,42.8,30.18,WNW,289,1.5,3.0,68,0.00,,CLR,0.00,VWS V14.01,2013-06-05 11:00:00,
2013-06-05 07:05:00,53.1,42.8,30.18,WNW,290,1.5,3.0,68,0.00,,CLR,0.00,VWS V14.01,2013-06-05 11:05:00,
2013-06-05 07:10:00,53.1,43.2,30.18,WNW,290,0.0,3.0,69,0.00,,CLR,0.00,VWS V14.01,2013-06-05 11:10:00,
2013-06-05 07:15:00,53.1,42.8,30.19,WNW,289,0.0,3.0,68,0.00,,CLR,0.00,VWS V14.01,2013-06-05 11:15:00,
2013-06-05 07:20:00,53.2,42.9,30.19,North,360,0.0,3.0,68,0.00,,CLR,0.00,VWS V14.01,2013-06-05 11:20:00,
2013-06-05 07:25:00,53.4,42.3,30.19,North,354,1.5,3.0,66,0.00,,CLR,0.00,VWS V14.01,2013-06-05 11:25:00,
2013-06-05 07:30:00,53.7,42.6,30.19,NNW,340,0.0,3.0,66,0.00,,CLR,0.00,VWS V14.01,2013-06-05 11:30:00,
2013-06-05 07:35:00,54.0,42.5,30.19,NNW,327,0.0,4.5,65,0.00,,CLR,0.00,VWS V14.01,2013-06-05 11:35:00,
2013-06-05 07:40:00,54.3,42.8,30.19,NW,326,0.0,4.5,65,0.00,,CLR,0.00,VWS V14.01,2013-06-05 11:40:00,
2013-06-05 07:45:00,54.4,42.1,30.19,NW,325,0.0,4.5,63,0.00,,CLR,0.00,VWS V14.01,2013-06-05 11:45:00,
2013-06-05 07:50:00,54.9,42.6,30.19,NW,326,0.0,4.5,63,0.00,,CLR,0.00,VWS V14.01,2013-06-05 11:50:00,
2013-06-05 07:55:00,55.5,43.5,30.19,NW,325,0.0,4.5,64,0.00,,CLR,0.00,VWS V14.01,2013-06-05 11:55:00,
2013-06-05 08:00:00,55.9,43.1,30.19,NNW,329,0.0,3.0,62,0.00,,CLR,0.00,VWS V14.01,2013-06-05 12:00:00,
2013-06-05 08:05:00,56.2,43.0,30.19,NNW,328,0.0,1.5,61,0.00,,CLR,0.00,VWS V14.01,2013-06-05 12:05:00,
2013-06-05 08:10:00,56.3,42.2,30.19,NNW,328,0.0,1.5,59,0.00,,CLR,0.00,VWS V14.01,2013-06-05 12:10:00,
2013-06-05 08:15:00,56.6,41.1,30.19,NNW,328,0.0,3.0,56,0.00,,CLR,0.00,VWS V14.01,2013-06-05 12:15:00,
2013-06-05 08:20:00,56.8,42.2,30.19,NNW,328,0.0,3.0,58,0.00,,CLR,0.00,VWS V14.01,2013-06-05 12:20:00,
2013-06-05 08:25:00,57.1,42.5,30.19,NNW,329,0.0,3.0,58,0.00,,CLR,0.00,VWS V14.01,2013-06-05 12:25:00,
2013-06-05 08:30:00,57.4,43.2,30.20,NNW,328,0.0,3.0,59,0.00,,CLR,0.00,VWS V14.01,2013-06-05 12:30:00,
2013-06-05 08:35:00,57.7,43.0,30.20,NNW,330,0.0,3.0,58,0.00,,CLR,0.00,VWS V14.01,2013-06-05 12:35:00,
2013-06-05 08:40:00,57.9,41.4,30.20,NNW,329,0.0,3.0,54,0.00,,CLR,0.00,VWS V14.01,2013-06-05 12:40:00,
2013-06-05 08:45:00,58.3,42.2,30.20,NNW,329,0.0,3.0,55,0.00,,CLR,0.00,VWS V14.01,2013-06-05 12:45:00,
2013-06-05 08:50:00,58.8,42.2,30.20,NW,326,0.0,1.5,54,0.00,,CLR,0.00,VWS V14.01,2013-06-05 12:50:00,
2013-06-05 08:55:00,59.4,42.8,30.20,NNW,335,0.0,1.5,54,0.00,,CLR,0.00,VWS V14.01,2013-06-05 12:55:00,
2013-06-05 09:00:00,59.9,42.7,30.19,NW,316,1.5,4.5,53,0.00,,CLR,0.00,VWS V14.01,2013-06-05 13:00:00,
2013-06-05 09:05:00,60.3,43.1,30.19,West,272,0.0,4.5,53,0.00,,CLR,0.00,VWS V14.01,2013-06-05 13:05:00,
2013-06-05 09:10:00,60.6,41.4,30.19,NW,317,1.5,6.0,49,0.00,,CLR,0.00,VWS V14.01,2013-06-05 13:10:00,
2013-06-05 09:16:00,60.8,39.9,30.20,NW,317,0.0,6.0,46,0.00,,CLR,0.00,VWS V14.01,2013-06-05 13:16:00,
2013-06-05 09:21:00,61.0,40.7,30.20,NW,317,0.0,6.0,47,0.00,,CLR,0.00,VWS V14.01,2013-06-05 13:21:00,
2013-06-05 09:26:00,61.4,40.5,30.20,NW,314,0.0,6.0,46,0.00,,CLR,0.00,VWS V14.01,2013-06-05 13:26:00,
2013-06-05 09:31:00,61.7,42.9,30.20,NW,313,1.5,6.0,50,0.00,,CLR,0.00,VWS V14.01,2013-06-05 13:31:00,
2013-06-05 09:36:00,61.9,39.8,30.20,NW,326,0.0,7.5,44,0.00,,CLR,0.00,VWS V14.01,2013-06-05 13:36:00,
2013-06-05 09:41:00,62.2,41.2,30.20,NNW,333,1.5,7.5,46,0.00,,CLR,0.00,VWS V14.01,2013-06-05 13:41:00,
2013-06-05 09:46:00,62.5,40.3,30.19,NW,316,6.0,7.5,44,0.00,,CLR,0.00,VWS V14.01,2013-06-05 13:46:00,
2013-06-05 09:51:00,62.4,40.8,30.19,NW,316,6.0,7.5,45,0.00,,CLR,0.00,VWS V14.01,2013-06-05 13:51:00,
2013-06-05 09:56:00,62.2,39.5,30.19,NW,324,3.0,7.5,43,0.00,,CLR,0.00,VWS V14.01,2013-06-05 13:56:00,
2013-06-05 10:01:00,62.2,40.0,30.19,NW,325,4.5,6.0,44,0.00,,CLR,0.00,VWS V14.01,2013-06-05 14:01:00,
2013-06-05 10:06:00,62.5,41.5,30.19,WNW,294,0.0,6.0,46,0.00,,CLR,0.00,VWS V14.01,2013-06-05 14:06:00,
2013-06-05 10:11:00,62.9,40.7,30.19,West,265,1.5,6.0,44,0.00,,CLR,0.00,VWS V14.01,2013-06-05 14:11:00,
2013-06-05 10:16:00,63.2,39.1,30.19,NW,323,1.5,6.0,41,0.00,,CLR,0.00,VWS V14.01,2013-06-05 14:16:00,
2013-06-05 10:21:00,63.3,38.6,30.19,WNW,300,0.0,6.0,40,0.00,,CLR,0.00,VWS V14.01,2013-06-05 14:21:00,
2013-06-05 10:26:00,63.3,39.2,30.19,NW,312,0.0,4.5,41,0.00,,CLR,0.00,VWS V14.01,2013-06-05 14:26:00,
2013-06-05 10:31:00,63.3,41.0,30.19,NW,312,0.0,4.5,44,0.00,,CLR,0.00,VWS V14.01,2013-06-05 14:31:00,
2013-06-05 10:36:00,63.8,42.1,30.19,NNE,23,3.0,7.5,45,0.00,,CLR,0.00,VWS V14.01,2013-06-05 14:36:00,
2013-06-05 10:41:00,64.3,37.5,30.19,NNW,339,1.5,7.5,37,0.00,,CLR,0.00,VWS V14.01,2013-06-05 14:41:00,
2013-06-05 10:46:00,64.8,36.5,30.19,WNW,288,1.5,7.5,35,0.00,,CLR,0.00,VWS V14.01,2013-06-05 14:46:00,
2013-06-05 10:51:00,65.0,36.7,30.19,WSW,245,1.5,7.5,35,0.00,,CLR,0.00,VWS V14.01,2013-06-05 14:51:00,
2013-06-05 10:56:00,65.3,35.5,30.19,North,350,3.0,7.5,33,0.00,,CLR,0.00,VWS V14.01,2013-06-05 14:56:00,
2013-06-05 11:01:00,65.6,37.2,30.18,WSW,256,0.0,7.5,35,0.00,,CLR,0.00,VWS V14.01,2013-06-05 15:01:00,
2013-06-05 11:07:00,66.1,35.4,30.18,NW,324,0.0,7.5,32,0.00,,CLR,0.00,VWS V14.01,2013-06-05 15:07:00,
2013-06-05 11:12:00,66.6,38.8,30.18,NNW,327,0.0,7.5,36,0.00,,CLR,0.00,VWS V14.01,2013-06-05 15:12:00,
2013-06-05 11:17:00,66.8,37.6,30.18,North,357,0.0,4.5,34,0.00,,CLR,0.00,VWS V14.01,2013-06-05 15:17:00,
2013-06-05 11:22:00,66.9,37.7,30.18,NNW,345,0.0,4.5,34,0.00,,CLR,0.00,VWS V14.01,2013-06-05 15:22:00,
2013-06-05 11:27:00,67.4,37.3,30.18,WSW,246,0.0,4.5,33,0.00,,CLR,0.00,VWS V14.01,2013-06-05 15:27:00,
2013-06-05 11:32:00,67.8,39.9,30.17,WNW,303,0.0,4.5,36,0.00,,CLR,0.00,VWS V14.01,2013-06-05 15:32:00,
2013-06-05 11:37:00,67.9,37.8,30.17,West,276,0.0,4.5,33,0.00,,CLR,0.00,VWS V14.01,2013-06-05 15:37:00,
2013-06-05 11:42:00,68.1,38.7,30.17,West,279,6.0,6.0,34,0.00,,CLR,0.00,VWS V14.01,2013-06-05 15:42:00,
2013-06-05 11:47:00,67.9,34.5,30.17,WNW,302,1.5,6.0,29,0.00,,CLR,0.00,VWS V14.01,2013-06-05 15:47:00,
2013-06-05 11:52:00,67.9,37.0,30.17,West,277,1.5,6.0,32,0.00,,CLR,0.00,VWS V14.01,2013-06-05 15:52:00,
2013-06-05 11:57:00,67.9,37.0,30.17,NW,319,0.0,6.0,32,0.00,,CLR,0.00,VWS V14.01,2013-06-05 15:57:00,
2013-06-05 12:02:00,68.3,34.0,30.17,West,278,3.0,6.0,28,0.00,,CLR,0.00,VWS V14.01,2013-06-05 16:02:00,
2013-06-05 12:07:00,68.1,41.6,30.17,NNW,328,4.5,4.5,38,0.00,,CLR,0.00,VWS V14.01,2013-06-05 16:07:00,
2013-06-05 12:12:00,68.1,36.3,30.17,NNW,335,0.0,4.5,31,0.00,,CLR,0.00,VWS V14.01,2013-06-05 16:12:00,
2013-06-05 12:17:00,68.4,41.1,30.17,NNW,329,0.0,4.5,37,0.00,,CLR,0.00,VWS V14.01,2013-06-05 16:17:00,
2013-06-05 12:22:00,68.4,39.0,30.17,NNW,328,0.0,4.5,34,0.00,,CLR,0.00,VWS V14.01,2013-06-05 16:22:00,
2013-06-05 12:27:00,68.6,36.8,30.17,NW,322,0.0,4.5,31,0.00,,CLR,0.00,VWS V14.01,2013-06-05 16:27:00,
2013-06-05 12:32:00,68.6,37.6,30.17,North,9,0.0,6.0,32,0.00,,CLR,0.00,VWS V14.01,2013-06-05 16:32:00,
2013-06-05 12:37:00,68.6,36.0,30.17,WNW,296,3.0,6.0,30,0.00,,CLR,0.00,VWS V14.01,2013-06-05 16:37:00,
2013-06-05 12:42:00,68.9,36.2,30.17,WNW,291,0.0,6.0,30,0.00,,CLR,0.00,VWS V14.01,2013-06-05 16:42:00,
2013-06-05 12:47:00,69.3,38.2,30.17,North,5,1.5,6.0,32,0.00,,CLR,0.00,VWS V14.01,2013-06-05 16:47:00,
2013-06-05 12:52:00,69.4,37.5,30.17,WNW,289,0.0,6.0,31,0.00,,CLR,0.00,VWS V14.01,2013-06-05 16:52:00,
2013-06-05 12:57:00,69.8,35.3,30.17,WNW,289,0.0,4.5,28,0.00,,CLR,0.00,VWS V14.01,2013-06-05 16:57:00,
2013-06-05 13:02:00,70.1,37.3,30.16,WNW,289,0.0,1.5,30,0.00,,CLR,0.00,VWS V14.01,2013-06-05 17:02:00,
2013-06-05 13:07:00,70.3,38.3,30.16,WNW,289,0.0,1.5,31,0.00,,CLR,0.00,VWS V14.01,2013-06-05 17:07:00,
2013-06-05 13:12:00,70.3,36.6,30.16,NNE,12,1.5,3.0,29,0.00,,CLR,0.00,VWS V14.01,2013-06-05 17:12:00,
2013-06-05 13:17:00,70.5,37.6,30.16,SW,234,0.0,3.0,30,0.00,,CLR,0.00,VWS V14.01,2013-06-05 17:17:00,
2013-06-05 13:22:00,70.3,39.9,30.16,SW,235,0.0,3.0,33,0.00,,CLR,0.00,VWS V14.01,2013-06-05 17:22:00,
2013-06-05 13:27:00,69.9,41.0,30.16,SW,234,0.0,3.0,35,0.00,,CLR,0.00,VWS V14.01,2013-06-05 17:27:00,
2013-06-05 13:32:00,69.6,42.2,30.16,SW,235,0.0,3.0,37,0.00,,CLR,0.00,VWS V14.01,2013-06-05 17:32:00,
2013-06-05 13:37:00,69.8,41.7,30.16,North,353,0.0,1.5,36,0.00,,CLR,0.00,VWS V14.01,2013-06-05 17:37:00,
2013-06-05 13:42:00,69.4,39.8,30.16,WNW,283,0.0,4.5,34,0.00,,CLR,0.00,VWS V14.01,2013-06-05 17:42:00,
2013-06-05 13:47:00,68.9,43.0,30.16,WNW,283,0.0,4.5,39,0.00,,CLR,0.00,VWS V14.01,2013-06-05 17:47:00,
2013-06-05 13:52:00,68.9,40.2,30.16,WNW,283,0.0,4.5,35,0.00,,CLR,0.00,VWS V14.01,2013-06-05 17:52:00,
2013-06-05 13:57:00,68.8,42.2,30.16,WNW,289,0.0,4.5,38,0.00,,CLR,0.00,VWS V14.01,2013-06-05 17:57:00,
2013-06-05 14:02:00,68.8,40.1,30.15,WNW,289,0.0,3.0,35,0.00,,CLR,0.00,VWS V14.01,2013-06-05 18:02:00,
2013-06-05 14:07:00,68.9,38.6,30.15,WNW,289,0.0,3.0,33,0.00,,CLR,0.00,VWS V14.01,2013-06-05 18:07:00,
2013-06-05 14:12:00,69.1,40.3,30.15,WNW,288,0.0,3.0,35,0.00,,CLR,0.00,VWS V14.01,2013-06-05 18:12:00,
2013-06-05 14:17:00,69.3,39.8,30.15,WNW,288,0.0,3.0,34,0.00,,CLR,0.00,VWS V14.01,2013-06-05 18:17:00,
2013-06-05 14:22:00,69.4,42.0,30.15,NW,306,0.0,3.0,37,0.00,,CLR,0.00,VWS V14.01,2013-06-05 18:22:00,
2013-06-05 14:27:00,69.9,41.0,30.15,NW,306,0.0,3.0,35,0.00,,CLR,0.00,VWS V14.01,2013-06-05 18:27:00,
2013-06-05 14:32:00,70.3,39.1,30.15,SW,235,0.0,6.0,32,0.00,,CLR,0.00,VWS V14.01,2013-06-05 18:32:00,
2013-06-05 14:38:00,70.3,37.4,30.15,West,266,0.0,6.0,30,0.00,,CLR,0.00,VWS V14.01,2013-06-05 18:38:00,
2013-06-05 14:43:00,70.1,39.7,30.15,West,266,0.0,6.0,33,0.00,,CLR,0.00,VWS V14.01,2013-06-05 18:43:00,
2013-06-05 14:48:00,70.1,38.9,30.14,West,264,0.0,6.0,32,0.00,,CLR,0.00,VWS V14.01,2013-06-05 18:48:00,
2013-06-05 14:53:00,70.6,40.9,30.14,West,263,0.0,6.0,34,0.00,,CLR,0.00,VWS V14.01,2013-06-05 18:53:00,
2013-06-05 14:58:00,71.3,39.1,30.14,West,263,0.0,3.0,31,0.00,,CLR,0.00,VWS V14.01,2013-06-05 18:58:00,
2013-06-05 15:03:00,71.5,37.6,30.13,WSW,258,0.0,3.0,29,0.00,,CLR,0.00,VWS V14.01,2013-06-05 19:03:00,
2013-06-05 15:08:00,71.7,40.3,30.13,NW,314,0.0,6.0,32,0.00,,CLR,0.00,VWS V14.01,2013-06-05 19:08:00,
2013-06-05 15:13:00,72.2,36.4,30.13,NW,312,0.0,6.0,27,0.00,,CLR,0.00,VWS V14.01,2013-06-05 19:13:00,
2013-06-05 15:18:00,72.5,39.3,30.13,NW,312,0.0,6.0,30,0.00,,CLR,0.00,VWS V14.01,2013-06-05 19:18:00,
2013-06-05 15:23:00,72.0,34.3,30.13,NW,312,0.0,6.0,25,0.00,,CLR,0.00,VWS V14.01,2013-06-05 19:23:00,
2013-06-05 15:28:00,71.3,36.5,30.13,NW,312,1.5,6.0,28,0.00,,CLR,0.00,VWS V14.01,2013-06-05 19:28:00,
2013-06-05 15:33:00,70.6,35.0,30.13,NW,313,0.0,6.0,27,0.00,,CLR,0.00,VWS V14.01,2013-06-05 19:33:00,
2013-06-05 15:38:00,70.3,37.4,30.13,NW,313,0.0,6.0,30,0.00,,CLR,0.00,VWS V14.01,2013-06-05 19:38:00,
2013-06-05 15:43:00,70.6,35.9,30.13,NNE,27,0.0,6.0,28,0.00,,CLR,0.00,VWS V14.01,2013-06-05 19:43:00,
2013-06-05 15:48:00,71.1,36.4,30.13,West,274,0.0,7.5,28,0.00,,CLR,0.00,VWS V14.01,2013-06-05 19:48:00,
2013-06-05 15:53:00,71.0,36.3,30.13,NNW,333,0.0,7.5,28,0.00,,CLR,0.00,VWS V14.01,2013-06-05 19:53:00,
2013-06-05 15:58:00,70.8,35.2,30.13,NE,35,0.0,7.5,27,0.00,,CLR,0.00,VWS V14.01,2013-06-05 19:58:00,
2013-06-05 16:03:00,71.1,38.1,30.13,East,83,0.0,7.5,30,0.00,,CLR,0.00,VWS V14.01,2013-06-05 20:03:00,
2013-06-05 16:08:00,71.5,35.8,30.13,NW,322,0.0,7.5,27,0.00,,CLR,0.00,VWS V14.01,2013-06-05 20:08:00,
2013-06-05 16:13:00,71.7,38.6,30.13,NW,322,0.0,7.5,30,0.00,,CLR,0.00,VWS V14.01,2013-06-05 20:13:00,
2013-06-05 16:18:00,71.8,37.0,30.11,NW,321,0.0,7.5,28,0.00,,CLR,0.00,VWS V14.01,2013-06-05 20:18:00,
2013-06-05 16:23:00,71.8,36.0,30.11,North,353,0.0,7.5,27,0.00,,CLR,0.00,VWS V14.01,2013-06-05 20:23:00,
2013-06-05 16:28:00,71.8,36.0,30.11,North,352,0.0,3.0,27,0.00,,CLR,0.00,VWS V14.01,2013-06-05 20:28:00,
2013-06-05 16:33:00,71.8,37.0,30.11,NW,313,0.0,1.5,28,0.00,,CLR,0.00,VWS V14.01,2013-06-05 20:33:00,
2013-06-05 16:38:00,71.7,36.0,30.11,NW,312,0.0,1.5,27,0.00,,CLR,0.00,VWS V14.01,2013-06-05 20:38:00,
2013-06-05 16:43:00,71.5,39.3,30.11,WNW,282,0.0,1.5,31,0.00,,CLR,0.00,VWS V14.01,2013-06-05 20:43:00,
2013-06-05 16:48:00,70.8,41.8,30.11,WNW,283,0.0,1.5,35,0.00,,CLR,0.00,VWS V14.01,2013-06-05 20:48:00,
2013-06-05 16:53:00,69.9,37.1,30.11,WNW,283,0.0,1.5,30,0.00,,CLR,0.00,VWS V14.01,2013-06-05 20:53:00,
2013-06-05 16:58:00,69.4,39.8,30.11,WNW,283,0.0,1.5,34,0.00,,CLR,0.00,VWS V14.01,2013-06-05 20:58:00,
2013-06-05 17:03:00,69.1,40.3,30.11,NNW,343,0.0,1.5,35,0.00,,CLR,0.00,VWS V14.01,2013-06-05 21:03:00,
2013-06-05 17:08:00,69.3,41.2,30.11,NNW,343,0.0,1.5,36,0.00,,CLR,0.00,VWS V14.01,2013-06-05 21:08:00,
2013-06-05 17:13:00,69.3,34.8,30.11,NNW,343,0.0,0.0,28,0.00,,CLR,0.00,VWS V14.01,2013-06-05 21:13:00,
2013-06-05 17:18:00,69.3,34.8,30.11,NNW,342,0.0,0.0,28,0.00,,CLR,0.00,VWS V14.01,2013-06-05 21:18:00,
2013-06-05 17:23:00,69.3,36.6,30.11,NW,312,0.0,1.5,30,0.00,,CLR,0.00,VWS V14.01,2013-06-05 21:23:00,
2013-06-05 17:28:00,69.3,39.8,30.11,West,272,0.0,1.5,34,0.00,,CLR,0.00,VWS V14.01,2013-06-05 21:28:00,
2013-06-05 17:33:00,69.1,38.8,30.10,West,271,0.0,1.5,33,0.00,,CLR,0.00,VWS V14.01,2013-06-05 21:33:00,
2013-06-05 17:38:00,68.9,40.2,30.10,West,272,0.0,1.5,35,0.00,,CLR,0.00,VWS V14.01,2013-06-05 21:38:00,
2013-06-05 17:43:00,68.9,40.2,30.10,West,270,0.0,1.5,35,0.00,,CLR,0.00,VWS V14.01,2013-06-05 21:43:00,
2013-06-05 17:48:00,68.8,37.8,30.10,West,270,0.0,1.5,32,0.00,,CLR,0.00,VWS V14.01,2013-06-05 21:48:00,
2013-06-05 17:53:00,68.6,38.4,30.10,West,271,0.0,3.0,33,0.00,,CLR,0.00,VWS V14.01,2013-06-05 21:53:00,
2013-06-05 17:58:00,68.6,42.0,30.10,West,271,0.0,3.0,38,0.00,,CLR,0.00,VWS V14.01,2013-06-05 21:58:00,
2013-06-05 18:03:00,68.3,39.6,30.11,West,272,0.0,3.0,35,0.00,,CLR,0.00,VWS V14.01,2013-06-05 22:03:00,
2013-06-05 18:08:00,68.3,36.5,30.11,West,272,0.0,3.0,31,0.00,,CLR,0.00,VWS V14.01,2013-06-05 22:08:00,
2013-06-05 18:13:00,68.3,38.9,30.11,West,281,0.0,3.0,34,0.00,,CLR,0.00,VWS V14.01,2013-06-05 22:13:00,
2013-06-05 18:18:00,68.3,38.9,30.11,West,281,0.0,1.5,34,0.00,,CLR,0.00,VWS V14.01,2013-06-05 22:18:00,
2013-06-05 18:23:00,68.4,38.2,30.11,West,281,0.0,1.5,33,0.00,,CLR,0.00,VWS V14.01,2013-06-05 22:23:00,
2013-06-05 18:28:00,68.4,39.0,30.11,West,281,0.0,0.0,34,0.00,,CLR,0.00,VWS V14.01,2013-06-05 22:28:00,
2013-06-05 18:33:00,68.4,37.4,30.11,West,281,0.0,0.0,32,0.00,,CLR,0.00,VWS V14.01,2013-06-05 22:33:00,
2013-06-05 18:38:00,68.3,37.3,30.11,WNW,282,0.0,0.0,32,0.00,,CLR,0.00,VWS V14.01,2013-06-05 22:38:00,
2013-06-05 18:43:00,68.1,37.2,30.11,West,280,0.0,0.0,32,0.00,,CLR,0.00,VWS V14.01,2013-06-05 22:43:00,
2013-06-05 18:48:00,67.9,41.4,30.12,West,280,0.0,0.0,38,0.00,,CLR,0.00,VWS V14.01,2013-06-05 22:48:00,
2013-06-05 18:53:00,67.6,40.4,30.12,West,280,0.0,0.0,37,0.00,,CLR,0.00,VWS V14.01,2013-06-05 22:53:00,
2013-06-05 18:58:00,67.3,43.5,30.12,West,280,0.0,1.5,42,0.00,,CLR,0.00,VWS V14.01,2013-06-05 22:58:00,
2013-06-05 19:03:00,66.9,41.8,30.13,North,1,0.0,1.5,40,0.00,,CLR,0.00,VWS V14.01,2013-06-05 23:03:00,
2013-06-05 19:08:00,66.8,43.6,30.13,NNW,327,0.0,3.0,43,0.00,,CLR,0.00,VWS V14.01,2013-06-05 23:08:00,
2013-06-05 19:13:00,66.6,40.9,30.13,NNW,328,0.0,3.0,39,0.00,,CLR,0.00,VWS V14.01,2013-06-05 23:13:00,
2013-06-05 19:18:00,66.6,42.2,30.13,NNW,327,0.0,3.0,41,0.00,,CLR,0.00,VWS V14.01,2013-06-05 23:18:00,
2013-06-05 19:23:00,66.4,41.4,30.13,NNW,327,0.0,3.0,40,0.00,,CLR,0.00,VWS V14.01,2013-06-05 23:23:00,
2013-06-05 19:29:00,66.4,42.0,30.13,NW,322,1.5,1.5,41,0.00,,CLR,0.00,VWS V14.01,2013-06-05 23:29:00,
2013-06-05 19:34:00,66.3,41.9,30.13,NW,322,0.0,1.5,41,0.00,,CLR,0.00,VWS V14.01,2013-06-05 23:34:00,
2013-06-05 19:39:00,66.3,41.3,30.13,NW,322,0.0,1.5,40,0.00,,CLR,0.00,VWS V14.01,2013-06-05 23:39:00,
2013-06-05 19:44:00,65.9,41.6,30.13,NW,323,0.0,1.5,41,0.00,,CLR,0.00,VWS V14.01,2013-06-05 23:44:00,
2013-06-05 19:49:00,65.8,40.8,30.13,NW,323,0.0,1.5,40,0.00,,CLR,0.00,VWS V14.01,2013-06-05 23:49:00,
2013-06-05 19:54:00,65.4,42.3,30.13,NW,323,0.0,0.0,43,0.00,,CLR,0.00,VWS V14.01,2013-06-05 23:54:00,
2013-06-05 19:59:00,65.0,40.8,30.13,NW,323,0.0,0.0,41,0.00,,CLR,0.00,VWS V14.01,2013-06-05 23:59:00,
2013-06-05 20:04:00,64.6,39.1,30.13,NW,324,0.0,0.0,39,0.00,,CLR,0.00,VWS V14.01,2013-06-06 00:04:00,
2013-06-05 20:09:00,64.2,40.0,30.13,NW,324,0.0,0.0,41,0.00,,CLR,0.00,VWS V14.01,2013-06-06 00:09:00,
2013-06-05 20:14:00,63.8,40.9,30.13,NW,324,0.0,0.0,43,0.00,,CLR,0.00,VWS V14.01,2013-06-06 00:14:00,
2013-06-05 20:19:00,63.7,40.8,30.13,NW,323,0.0,0.0,43,0.00,,CLR,0.00,VWS V14.01,2013-06-06 00:19:00,
2013-06-05 20:24:00,63.3,41.6,30.13,NW,324,0.0,0.0,45,0.00,,CLR,0.00,VWS V14.01,2013-06-06 00:24:00,
2013-06-05 20:29:00,62.9,42.9,30.13,NW,324,0.0,0.0,48,0.00,,CLR,0.00,VWS V14.01,2013-06-06 00:29:00,
2013-06-05 20:34:00,62.5,41.5,30.13,NW,324,0.0,0.0,46,0.00,,CLR,0.00,VWS V14.01,2013-06-06 00:34:00,
2013-06-05 20:39:00,62.2,41.7,30.13,NW,324,0.0,0.0,47,0.00,,CLR,0.00,VWS V14.01,2013-06-06 00:39:00,
2013-06-05 20:44:00,61.7,41.8,30.13,NW,323,0.0,0.0,48,0.00,,CLR,0.00,VWS V14.01,2013-06-06 00:44:00,
2013-06-05 20:49:00,61.4,41.0,30.14,NW,324,0.0,0.0,47,0.00,,CLR,0.00,VWS V14.01,2013-06-06 00:49:00,
2013-06-05 20:54:00,61.3,43.0,30.14,NW,323,0.0,0.0,51,0.00,,CLR,0.00,VWS V14.01,2013-06-06 00:54:00,
2013-06-05 20:59:00,61.0,42.2,30.14,NW,324,0.0,0.0,50,0.00,,CLR,0.00,VWS V14.01,2013-06-06 00:59:00,
2013-06-05 21:04:00,60.8,41.5,30.15,NW,324,0.0,0.0,49,0.00,,CLR,0.00,VWS V14.01,2013-06-06 01:04:00,
2013-06-05 21:09:00,60.5,42.8,30.15,NW,323,0.0,0.0,52,0.00,,CLR,0.00,VWS V14.01,2013-06-06 01:09:00,
2013-06-05 21:14:00,60.3,43.1,30.15,NW,324,0.0,0.0,53,0.00,,CLR,0.00,VWS V14.01,2013-06-06 01:14:00,
2013-06-05 21:19:00,60.0,44.3,30.15,NW,324,0.0,0.0,56,0.00,,CLR,0.00,VWS V14.01,2013-06-06 01:19:00,
2013-06-05 21:24:00,59.9,44.7,30.15,NW,323,0.0,0.0,57,0.00,,CLR,0.00,VWS V14.01,2013-06-06 01:24:00,
2013-06-05 21:29:00,59.7,43.0,30.15,NW,323,0.0,0.0,54,0.00,,CLR,0.00,VWS V14.01,2013-06-06 01:29:00,
2013-06-05 21:34:00,59.5,40.9,30.16,NW,324,0.0,0.0,50,0.00,,CLR,0.00,VWS V14.01,2013-06-06 01:34:00,
2013-06-05 21:39:00,59.7,40.5,30.16,NW,324,0.0,0.0,49,0.00,,CLR,0.00,VWS V14.01,2013-06-06 01:39:00,
2013-06-05 21:44:00,59.9,43.2,30.16,NW,323,0.0,0.0,54,0.00,,CLR,0.00,VWS V14.01,2013-06-06 01:44:00,
2013-06-05 21:49:00,60.0,44.7,30.16,NW,324,0.0,0.0,57,0.00,,CLR,0.00,VWS V14.01,2013-06-06 01:49:00,
2013-06-05 21:54:00,59.9,44.7,30.16,NW,323,0.0,0.0,57,0.00,,CLR,0.00,VWS V14.01,2013-06-06 01:54:00,
2013-06-05 21:59:00,59.7,43.5,30.16,NW,323,0.0,0.0,55,0.00,,CLR,0.00,VWS V14.01,2013-06-06 01:59:00,
2013-06-05 22:04:00,59.5,45.2,30.16,NW,324,0.0,0.0,59,0.00,,OVC120,0.00,VWS V14.01,2013-06-06 02:04:00,
2013-06-05 22:09:00,59.4,44.6,30.16,NW,323,0.0,0.0,58,0.00,,OVC120,0.00,VWS V14.01,2013-06-06 02:09:00,
2013-06-05 22:14:00,59.2,45.3,30.16,NW,323,0.0,0.0,60,0.00,,OVC120,0.00,VWS V14.01,2013-06-06 02:14:00,
2013-06-05 22:19:00,59.2,46.2,30.16,NW,324,0.0,1.5,62,0.00,,OVC120,0.00,VWS V14.01,2013-06-06 02:19:00,
2013-06-05 22:24:00,59.2,47.5,30.16,SW,236,1.5,3.0,65,0.00,,OVC120,0.00,VWS V14.01,2013-06-06 02:24:00,
2013-06-05 22:29:00,59.1,47.0,30.16,WSW,237,0.0,3.0,64,0.00,,OVC120,0.00,VWS V14.01,2013-06-06 02:29:00,
2013-06-05 22:34:00,59.1,47.4,30.16,WSW,237,0.0,3.0,65,0.00,,OVC120,0.00,VWS V14.01,2013-06-06 02:34:00,
2013-06-05 22:39:00,58.9,46.8,30.16,WSW,237,0.0,3.0,64,0.00,,OVC120,0.00,VWS V14.01,2013-06-06 02:39:00,
2013-06-05 22:44:00,58.8,45.0,30.16,WSW,237,0.0,3.0,60,0.00,,OVC120,0.00,VWS V14.01,2013-06-06 02:44:00,
2013-06-05 22:49:00,58.8,45.8,30.17,WSW,237,0.0,0.0,62,0.00,,OVC120,0.00,VWS V14.01,2013-06-06 02:49:00,
2013-06-05 22:55:00,58.6,45.2,30.17,WSW,237,0.0,0.0,61,0.00,,OVC120,0.00,VWS V14.01,2013-06-06 02:55:00,
2013-06-05 23:00:00,58.6,45.6,30.17,WSW,237,0.0,0.0,62,0.00,,OVC120,0.00,VWS V14.01,2013-06-06 03:00:00,
2013-06-05 23:01:00,57.7,47.2,30.17,SW,236,0.0,1.5,68,0.00,,CLR,0.00,VWS V14.01,2013-06-06 03:01:00,
2013-06-05 23:02:00,57.7,47.2,30.17,SW,236,0.0,1.5,68,0.00,,CLR,0.00,VWS V14.01,2013-06-06 03:02:00,
2013-06-05 23:03:00,57.7,47.2,30.17,SW,236,0.0,1.5,68,0.00,,CLR,0.00,VWS V14.01,2013-06-06 03:03:00,
2013-06-05 23:04:00,57.7,47.2,30.17,SW,235,0.0,0.0,68,0.00,,CLR,0.00,VWS V14.01,2013-06-06 03:04:00,
2013-06-05 23:05:00,58.5,45.1,30.17,WSW,237,0.0,0.0,61,0.00,,CLR,0.00,VWS V14.01,2013-06-06 03:05:00,
2013-06-05 23:06:00,57.7,47.2,30.17,SW,236,0.0,0.0,68,0.00,,CLR,0.00,VWS V14.01,2013-06-06 03:06:00,
2013-06-05 23:07:00,57.7,47.2,30.17,SW,236,0.0,0.0,68,0.00,,CLR,0.00,VWS V14.01,2013-06-06 03:07:00,
2013-06-05 23:08:00,57.6,47.1,30.17,SW,236,0.0,0.0,68,0.00,,CLR,0.00,VWS V14.01,2013-06-06 03:08:00,
2013-06-05 23:09:00,57.6,47.1,30.17,SW,236,0.0,0.0,68,0.00,,CLR,0.00,VWS V14.01,2013-06-06 03:09:00,
2013-06-05 23:10:00,58.5,45.1,30.17,WSW,237,0.0,0.0,61,0.00,,CLR,0.00,VWS V14.01,2013-06-06 03:10:00,
2013-06-05 23:11:00,57.6,47.9,30.17,WSW,237,0.0,0.0,70,0.00,,CLR,0.00,VWS V14.01,2013-06-06 03:11:00,
2013-06-05 23:13:00,57.7,48.4,30.17,SW,236,0.0,0.0,71,0.00,,CLR,0.00,VWS V14.01,2013-06-06 03:13:00,
2013-06-05 23:14:00,57.7,48.8,30.17,SW,236,0.0,0.0,72,0.00,,CLR,0.00,VWS V14.01,2013-06-06 03:14:00,
2013-06-05 23:15:00,58.3,45.3,30.17,WSW,237,0.0,0.0,62,0.00,,CLR,0.00,VWS V14.01,2013-06-06 03:15:00,
2013-06-05 23:20:00,58.3,45.8,30.17,WSW,237,0.0,0.0,63,0.00,,CLR,0.00,VWS V14.01,2013-06-06 03:20:00,
2013-06-05 23:25:00,58.2,46.1,30.17,WSW,237,0.0,0.0,64,0.00,,CLR,0.00,VWS V14.01,2013-06-06 03:25:00,
2013-06-05 23:30:00,58.0,46.7,30.17,SW,236,0.0,1.5,66,0.00,,CLR,0.00,VWS V14.01,2013-06-06 03:30:00,
2013-06-05 23:35:00,57.9,47.8,30.17,SW,236,0.0,1.5,69,0.00,,CLR,0.00,VWS V14.01,2013-06-06 03:35:00,
2013-06-05 23:40:00,57.7,47.2,30.17,SW,236,0.0,1.5,68,0.00,,CLR,0.00,VWS V14.01,2013-06-06 03:40:00,
2013-06-05 23:45:00,57.7,47.6,30.18,SW,236,0.0,1.5,69,0.00,,CLR,0.00,VWS V14.01,2013-06-06 03:45:00,
2013-06-05 23:50:00,57.9,47.8,30.18,SW,236,0.0,1.5,69,0.00,,CLR,0.00,VWS V14.01,2013-06-06 03:50:00,
2013-06-05 23:55:00,57.9,47.8,30.18,SW,236,0.0,1.5,69,0.00,,CLR,0.00,VWS V14.01,2013-06-06 03:55:00,